Terminal Aerodrome Forecast
Issued by NWS Wilmington, OH

Current Version | Previous Version | Text Only | Print | Product List | Glossary Off
Versions: 1 2 3 4 5 6 7 8 9 10 11 12 13 14 15 16 17 18

000
FTUS41 KILN 310300 AAB
TAFDAY
TAF AMD
KDAY 310332Z 3104/3124 23006KT P6SM BKN050
      TEMPO 3104/3106 4SM -TSRA BR OVC035CB
     FM310600 29004KT P6SM SCT070
      TEMPO 3109/3113 4SM BR
     FM311500 24006KT P6SM SCT040=

USA.gov is the U.S. government's official web portal to all federal, state and local government web resources and services.